Terminal Aerodrome Forecast
Issued by NWS Cleveland, OH

Home | Current Version | Previous Version | Graphics & Text | Print | Product List | Glossary On
Versions: 1 2 3 4 5 6 7 8 9 10 11 12 13 14 15 16 17 18 19 20
000
FTUS41 KCLE 261503 AAA
TAFMFD
TAF AMD
KMFD 261503Z 2615/2712 21014G24KT P6SM SCT040
     FM261700 19012G20KT P6SM BKN040
     FM262300 18015G25KT 6SM -SHRA VCTS BKN040CB OVC080
     FM270200 19015G22KT P6SM VCSH BKN040 OVC100
     FM270800 20012KT 5SM BR BKN008=

USA.gov is the U.S. government's official web portal to all federal, state and local government web resources and services.